createdAt,value
2019-01-16T00:00:11.801Z,7.03
2019-01-16T00:01:11.764Z,7.04
2019-01-16T00:02:11.791Z,7.00
2019-01-16T00:03:11.733Z,7.08
2019-01-16T00:04:11.803Z,7.00
2019-01-16T00:05:11.730Z,7.11
2019-01-16T00:06:11.818Z,7.14
2019-01-16T00:07:11.693Z,7.13
2019-01-16T00:08:11.728Z,7.14
2019-01-16T00:09:11.668Z,7.10
2019-01-16T00:10:11.768Z,7.13
2019-01-16T00:11:11.643Z,7.13
2019-01-16T00:12:11.660Z,7.13
2019-01-16T00:13:11.644Z,7.10
2019-01-16T00:14:11.668Z,7.13
2019-01-16T00:15:11.614Z,7.18
2019-01-16T00:16:11.685Z,7.07
2019-01-16T00:17:11.579Z,7.11
2019-01-16T00:18:17.029Z,7.18
2019-01-16T00:19:12.553Z,7.15
2019-01-16T00:20:11.642Z,7.15
2019-01-16T00:21:11.536Z,7.15
2019-01-16T00:22:11.620Z,7.11
2019-01-16T00:23:11.513Z,7.07
2019-01-16T00:24:11.532Z,7.07
2019-01-16T00:25:11.507Z,7.14
2019-01-16T00:26:11.550Z,7.11
2019-01-16T00:27:11.470Z,7.10
2019-01-16T00:28:11.561Z,7.14
2019-01-16T00:29:11.449Z,7.07
2019-01-16T00:30:11.510Z,7.03
2019-01-16T00:31:11.433Z,7.13
2019-01-16T00:32:13.433Z,7.11
2019-01-16T00:33:11.398Z,7.11
2019-01-16T00:34:19.386Z,7.08
2019-01-16T00:35:11.395Z,7.10
2019-01-16T00:36:11.413Z,7.08
2019-01-16T00:37:11.362Z,7.07
2019-01-16T00:38:11.427Z,7.08
2019-01-16T00:39:11.332Z,7.00
2019-01-16T00:40:11.358Z,6.92
2019-01-16T00:41:11.711Z,7.05
2019-01-16T00:42:11.345Z,7.03
2019-01-16T00:43:11.302Z,7.01
2019-01-16T00:44:11.357Z,7.01
2019-01-16T00:45:11.345Z,7.07
2019-01-16T00:46:11.268Z,7.04
2019-01-16T00:47:11.246Z,7.00
2019-01-16T00:48:11.282Z,7.03
2019-01-16T00:49:11.226Z,7.03
2019-01-16T00:50:11.299Z,6.96
2019-01-16T00:51:11.213Z,6.93
2019-01-16T00:52:11.209Z,7.04
2019-01-16T00:53:11.176Z,7.00
2019-01-16T00:54:11.222Z,6.95
2019-01-16T00:55:11.156Z,6.95
2019-01-16T00:56:11.280Z,6.97
2019-01-16T00:57:11.140Z,6.92
2019-01-16T00:58:11.146Z,6.97
2019-01-16T00:59:11.239Z,6.92
2019-01-16T01:00:11.160Z,6.97
2019-01-16T01:01:11.107Z,6.95
2019-01-16T01:02:11.174Z,6.95
2019-01-16T01:03:11.068Z,6.86
2019-01-16T01:04:11.086Z,6.90
2019-01-16T01:05:11.047Z,6.87
2019-01-16T01:06:11.137Z,6.92
2019-01-16T01:07:11.022Z,6.87
2019-01-16T01:08:11.112Z,6.89
2019-01-16T01:09:11.002Z,6.92
2019-01-16T01:10:11.026Z,6.90
2019-01-16T01:11:10.997Z,6.90
2019-01-16T01:12:11.039Z,6.85
2019-01-16T01:13:10.957Z,6.87
2019-01-16T01:14:11.052Z,6.90
2019-01-16T01:15:10.933Z,6.80
2019-01-16T01:16:13.042Z,6.82
2019-01-16T01:17:10.912Z,6.78
2019-01-16T01:18:17.942Z,6.78
2019-01-16T01:19:10.892Z,6.85
2019-01-16T01:20:19.902Z,6.75
2019-01-16T01:21:10.886Z,6.75
2019-01-16T01:22:10.905Z,6.75
2019-01-16T01:23:10.848Z,6.85
2019-01-16T01:24:11.943Z,6.82
2019-01-16T01:25:10.826Z,6.78
2019-01-16T01:26:10.855Z,6.78
2019-01-16T01:27:10.808Z,6.77
2019-01-16T01:28:10.845Z,6.83
2019-01-16T01:29:10.785Z,6.86
2019-01-16T01:30:10.854Z,6.77
2019-01-16T01:31:10.773Z,6.72
2019-01-16T01:32:10.773Z,6.72
2019-01-16T01:33:10.739Z,6.74
2019-01-16T01:34:10.785Z,6.71
2019-01-16T01:35:10.714Z,6.70
2019-01-16T01:36:10.824Z,6.74
2019-01-16T01:37:10.694Z,6.70
2019-01-16T01:38:10.712Z,6.68
2019-01-16T01:39:10.670Z,6.72
2019-01-16T01:40:10.717Z,6.70
2019-01-16T01:41:10.662Z,6.80
2019-01-16T01:42:10.731Z,6.72
2019-01-16T01:43:10.624Z,6.72
2019-01-16T01:44:10.651Z,6.74
2019-01-16T01:45:10.602Z,6.71
2019-01-16T01:46:10.656Z,6.77
2019-01-16T01:47:10.601Z,6.80
2019-01-16T01:48:10.670Z,6.80
2019-01-16T01:49:10.561Z,6.80
2019-01-16T01:50:10.595Z,6.83
2019-01-16T01:51:11.897Z,6.80
2019-01-16T01:52:10.629Z,6.86
2019-01-16T01:53:10.524Z,6.83
2019-01-16T01:54:10.608Z,6.78
2019-01-16T01:55:10.493Z,6.82
2019-01-16T01:56:10.524Z,6.82
2019-01-16T01:57:10.507Z,6.78
2019-01-16T01:58:10.533Z,6.85
2019-01-16T01:59:10.454Z,6.85
2019-01-16T02:00:11.921Z,6.80
2019-01-16T02:01:10.431Z,6.85
2019-01-16T02:02:12.535Z,6.74
2019-01-16T02:03:10.406Z,6.72
2019-01-16T02:04:33.524Z,6.78
2019-01-16T02:05:10.382Z,6.86
2019-01-16T02:06:10.387Z,6.92
2019-01-16T02:07:10.373Z,6.92
2019-01-16T02:08:10.403Z,6.92
2019-01-16T02:09:10.338Z,6.89
2019-01-16T02:10:12.362Z,6.86
2019-01-16T02:11:10.320Z,6.85
2019-01-16T02:12:10.356Z,6.83
2019-01-16T02:13:10.296Z,6.82
2019-01-16T02:14:10.340Z,6.78
2019-01-16T02:15:10.273Z,6.83
2019-01-16T02:16:10.352Z,6.82
2019-01-16T02:17:10.272Z,6.77
2019-01-16T02:18:10.265Z,6.80
2019-01-16T02:19:10.235Z,6.80
2019-01-16T02:20:10.280Z,6.85
2019-01-16T02:21:10.208Z,6.90
2019-01-16T02:22:10.315Z,6.90
2019-01-16T02:23:10.188Z,6.90
2019-01-16T02:24:10.200Z,6.78
2019-01-16T02:25:10.160Z,6.93
2019-01-16T02:26:10.215Z,6.93
2019-01-16T02:27:10.152Z,6.83
2019-01-16T02:28:10.229Z,6.83
2019-01-16T02:29:10.116Z,6.83
2019-01-16T02:30:10.139Z,6.86
2019-01-16T02:31:10.094Z,6.90
2019-01-16T02:32:10.188Z,6.80
2019-01-16T02:33:10.074Z,6.86
2019-01-16T02:34:10.171Z,6.74
2019-01-16T02:35:10.049Z,6.83
2019-01-16T02:36:10.080Z,6.85
2019-01-16T02:37:10.443Z,6.87
2019-01-16T02:38:10.132Z,6.82
2019-01-16T02:39:10.010Z,6.80
2019-01-16T02:40:10.112Z,6.85
2019-01-16T02:41:09.990Z,6.90
2019-01-16T02:42:10.020Z,6.77
2019-01-16T02:43:09.986Z,6.83
2019-01-16T02:44:10.039Z,6.95
2019-01-16T02:45:09.956Z,6.90
2019-01-16T02:46:10.050Z,6.90
2019-01-16T02:47:09.921Z,6.92
2019-01-16T02:48:09.983Z,6.90
2019-01-16T02:49:09.898Z,6.93
2019-01-16T02:50:09.971Z,6.95
2019-01-16T02:51:09.874Z,6.85
2019-01-16T02:52:09.886Z,6.89
2019-01-16T02:53:09.865Z,6.92
2019-01-16T02:54:09.898Z,6.82
2019-01-16T02:55:09.828Z,6.92
2019-01-16T02:56:09.910Z,6.86
2019-01-16T02:57:09.811Z,6.89
2019-01-16T02:58:09.848Z,6.89
2019-01-16T02:59:09.789Z,6.96
2019-01-16T03:00:09.835Z,6.90
2019-01-16T03:01:09.762Z,6.83
2019-01-16T03:02:09.849Z,6.87
2019-01-16T03:03:09.758Z,6.92
2019-01-16T03:04:09.759Z,6.86
2019-01-16T03:05:09.723Z,6.92
2019-01-16T03:06:09.772Z,6.93
2019-01-16T03:07:09.702Z,6.89
2019-01-16T03:08:09.812Z,6.92
2019-01-16T03:09:09.681Z,6.87
2019-01-16T03:10:09.696Z,6.85
2019-01-16T03:11:09.652Z,6.96
2019-01-16T03:12:09.712Z,6.86
2019-01-16T03:13:09.644Z,6.89
2019-01-16T03:14:09.727Z,6.90
2019-01-16T03:15:09.611Z,6.89
2019-01-16T03:16:09.640Z,6.89
2019-01-16T03:17:09.585Z,6.85
2019-01-16T03:18:09.677Z,6.95
2019-01-16T03:19:09.564Z,6.92
2019-01-16T03:20:09.662Z,6.92
2019-01-16T03:21:09.544Z,6.85
2019-01-16T03:22:09.574Z,6.89
2019-01-16T03:23:09.551Z,6.90
2019-01-16T03:24:09.587Z,6.95
2019-01-16T03:25:09.502Z,6.93
2019-01-16T03:26:09.498Z,6.95
2019-01-16T03:27:09.488Z,6.93
2019-01-16T03:28:09.545Z,6.96
2019-01-16T03:29:09.453Z,6.89
2019-01-16T03:30:09.533Z,6.95
2019-01-16T03:31:09.430Z,7.05
2019-01-16T03:32:09.441Z,7.03
2019-01-16T03:33:09.449Z,6.97
2019-01-16T03:34:24.413Z,7.00
2019-01-16T03:35:09.530Z,7.00
2019-01-16T03:36:10.386Z,6.97
2019-01-16T03:37:09.414Z,7.04
2019-01-16T03:38:09.418Z,7.05
2019-01-16T03:39:09.358Z,7.05
2019-01-16T03:40:09.427Z,7.05
2019-01-16T03:41:09.319Z,7.00
2019-01-16T03:42:09.419Z,6.96
2019-01-16T03:43:09.296Z,6.97
2019-01-16T03:44:09.350Z,7.05
2019-01-16T03:45:09.277Z,7.04
2019-01-16T03:46:09.335Z,7.01
2019-01-16T03:47:09.252Z,7.07
2019-01-16T03:48:09.345Z,7.07
2019-01-16T03:49:13.598Z,7.07
2019-01-16T03:50:09.258Z,7.08
2019-01-16T03:51:09.218Z,7.11
2019-01-16T03:52:09.268Z,7.04
2019-01-16T03:53:09.188Z,7.13
2019-01-16T03:54:09.217Z,7.04
2019-01-16T03:55:09.162Z,7.07
2019-01-16T03:56:09.198Z,7.07
2019-01-16T03:57:09.145Z,7.05
2019-01-16T03:58:09.208Z,7.11
2019-01-16T03:59:09.132Z,7.13
2019-01-16T04:00:09.222Z,7.08
2019-01-16T04:01:09.097Z,7.11
2019-01-16T04:02:09.143Z,7.11
2019-01-16T04:03:09.077Z,7.07
2019-01-16T04:04:09.177Z,7.14
2019-01-16T04:05:09.056Z,7.18
2019-01-16T04:06:09.056Z,7.14
2019-01-16T04:07:09.034Z,7.19
2019-01-16T04:08:09.074Z,7.14
2019-01-16T04:09:09.032Z,7.21
2019-01-16T04:10:09.084Z,7.13
2019-01-16T04:11:08.987Z,7.18
2019-01-16T04:12:08.995Z,7.15
2019-01-16T04:13:08.978Z,7.14
2019-01-16T04:14:09.034Z,7.10
2019-01-16T04:15:08.941Z,7.19
2019-01-16T04:16:09.024Z,7.10
2019-01-16T04:17:09.341Z,7.11
2019-01-16T04:18:10.983Z,7.11
2019-01-16T04:19:08.913Z,7.10
2019-01-16T04:20:15.921Z,7.22
2019-01-16T04:21:08.876Z,7.10
2019-01-16T04:22:09.889Z,7.15
2019-01-16T04:23:08.855Z,7.07
2019-01-16T04:24:08.902Z,7.08
2019-01-16T04:25:08.897Z,7.21
2019-01-16T04:26:08.892Z,7.21
2019-01-16T04:27:08.810Z,7.21
2019-01-16T04:28:08.904Z,7.10
2019-01-16T04:29:08.838Z,7.26
2019-01-16T04:30:08.817Z,7.18
2019-01-16T04:31:08.780Z,7.22
2019-01-16T04:32:08.824Z,7.25
2019-01-16T04:33:08.745Z,7.22
2019-01-16T04:34:08.843Z,7.26
2019-01-16T04:35:08.743Z,7.21
2019-01-16T04:36:08.755Z,7.31
2019-01-16T04:37:08.714Z,7.23
2019-01-16T04:38:08.763Z,7.26
2019-01-16T04:39:08.690Z,7.14
2019-01-16T04:40:08.701Z,7.19
2019-01-16T04:41:08.660Z,7.15
2019-01-16T04:42:08.690Z,7.22
2019-01-16T04:43:08.652Z,7.21
2019-01-16T04:44:09.979Z,7.26
2019-01-16T04:45:08.629Z,7.26
2019-01-16T04:46:08.613Z,7.26
2019-01-16T04:47:08.601Z,7.25
2019-01-16T04:48:08.628Z,7.29
2019-01-16T04:49:08.569Z,7.21
2019-01-16T04:50:08.672Z,7.23
2019-01-16T04:51:08.546Z,7.22
2019-01-16T04:52:08.553Z,7.23
2019-01-16T04:53:08.538Z,7.26
2019-01-16T04:54:08.565Z,7.23
2019-01-16T04:55:08.529Z,7.22
2019-01-16T04:56:08.580Z,7.23
2019-01-16T04:57:08.485Z,7.26
2019-01-16T04:58:08.491Z,7.25
2019-01-16T04:59:08.473Z,7.31
2019-01-16T05:00:08.533Z,7.28
2019-01-16T05:01:08.437Z,7.31
2019-01-16T05:02:08.519Z,7.22
2019-01-16T05:03:08.414Z,7.26
2019-01-16T05:04:15.393Z,7.28
2019-01-16T05:05:08.406Z,7.32
2019-01-16T05:06:23.402Z,7.31
2019-01-16T05:07:08.374Z,7.22
2019-01-16T05:08:09.783Z,7.37
2019-01-16T05:09:08.347Z,7.28
2019-01-16T05:10:08.398Z,7.28
2019-01-16T05:11:08.330Z,7.25
2019-01-16T05:12:08.387Z,7.26
2019-01-16T05:13:08.306Z,7.28
2019-01-16T05:14:08.403Z,7.29
2019-01-16T05:15:08.302Z,7.26
2019-01-16T05:16:08.309Z,7.22
2019-01-16T05:17:08.271Z,7.29
2019-01-16T05:18:08.362Z,7.22
2019-01-16T05:19:08.248Z,7.25
2019-01-16T05:20:08.268Z,7.25
2019-01-16T05:21:08.217Z,7.28
2019-01-16T05:22:08.248Z,7.23
2019-01-16T05:23:08.197Z,7.29
2019-01-16T05:24:08.265Z,7.28
2019-01-16T05:25:08.185Z,7.29
2019-01-16T05:26:08.293Z,7.25
2019-01-16T05:27:08.155Z,7.25
2019-01-16T05:28:08.188Z,7.33
2019-01-16T05:29:08.127Z,7.29
2019-01-16T05:30:08.227Z,7.31
2019-01-16T05:31:08.104Z,7.33
2019-01-16T05:32:09.137Z,7.28
2019-01-16T05:33:08.083Z,7.32
2019-01-16T05:34:08.123Z,7.29
2019-01-16T05:35:08.075Z,7.28
2019-01-16T05:36:08.137Z,7.29
2019-01-16T05:37:08.040Z,7.29
2019-01-16T05:38:08.048Z,7.28
2019-01-16T05:39:08.017Z,7.31
2019-01-16T05:40:08.094Z,7.29
2019-01-16T05:41:07.995Z,7.28
2019-01-16T05:42:08.081Z,7.29
2019-01-16T05:43:07.975Z,7.23
2019-01-16T05:44:07.990Z,7.32
2019-01-16T05:45:07.966Z,7.25
2019-01-16T05:46:08.007Z,7.14
2019-01-16T05:47:07.931Z,7.40
2019-01-16T05:48:08.015Z,7.25
2019-01-16T05:49:07.906Z,7.39
2019-01-16T05:50:07.962Z,7.29
2019-01-16T05:51:07.901Z,7.25
2019-01-16T05:52:07.940Z,7.32
2019-01-16T05:53:07.866Z,7.29
2019-01-16T05:54:07.953Z,7.29
2019-01-16T05:55:07.840Z,7.23
2019-01-16T05:56:07.910Z,7.28
2019-01-16T05:57:07.820Z,7.31
2019-01-16T05:58:07.877Z,7.28
2019-01-16T05:59:07.799Z,7.28
2019-01-16T06:00:07.894Z,7.28
2019-01-16T06:01:07.798Z,7.26
2019-01-16T06:02:07.804Z,7.31
2019-01-16T06:03:07.758Z,7.31
2019-01-16T06:04:07.820Z,7.26
2019-01-16T06:05:07.729Z,7.32
2019-01-16T06:06:07.757Z,7.36
2019-01-16T06:07:07.760Z,7.28
2019-01-16T06:08:07.754Z,7.28
2019-01-16T06:09:07.691Z,7.26
2019-01-16T06:10:07.767Z,7.26
2019-01-16T06:11:07.691Z,7.26
2019-01-16T06:12:07.668Z,7.37
2019-01-16T06:13:07.646Z,7.29
2019-01-16T06:14:07.682Z,7.25
2019-01-16T06:15:07.639Z,7.25
2019-01-16T06:16:07.769Z,7.31
2019-01-16T06:17:07.602Z,7.26
2019-01-16T06:18:07.613Z,7.36
2019-01-16T06:19:07.585Z,7.41
2019-01-16T06:20:07.621Z,7.29
2019-01-16T06:21:07.573Z,7.33
2019-01-16T06:22:07.646Z,7.25
2019-01-16T06:23:07.545Z,7.26
2019-01-16T06:24:07.548Z,7.21
2019-01-16T06:25:07.527Z,7.19
2019-01-16T06:26:07.585Z,7.22
2019-01-16T06:27:07.488Z,7.22
2019-01-16T06:28:07.574Z,7.28
2019-01-16T06:29:07.474Z,7.22
2019-01-16T06:30:07.484Z,7.22
2019-01-16T06:31:07.465Z,7.23
2019-01-16T06:32:07.500Z,7.28
2019-01-16T06:33:07.423Z,7.31
2019-01-16T06:34:07.512Z,7.25
2019-01-16T06:35:07.409Z,7.23
2019-01-16T06:36:10.938Z,7.22
2019-01-16T06:37:07.380Z,7.23
2019-01-16T06:38:14.402Z,7.22
2019-01-16T06:39:07.360Z,7.32
2019-01-16T06:40:08.374Z,7.26
2019-01-16T06:41:07.338Z,7.26
2019-01-16T06:42:07.387Z,7.29
2019-01-16T06:43:07.321Z,7.33
2019-01-16T06:44:07.378Z,7.29
2019-01-16T06:45:07.293Z,7.31
2019-01-16T06:46:07.405Z,7.36
2019-01-16T06:47:07.290Z,7.28
2019-01-16T06:48:07.301Z,7.29
2019-01-16T06:49:07.257Z,7.32
2019-01-16T06:50:07.314Z,7.28
2019-01-16T06:51:07.230Z,7.33
2019-01-16T06:52:07.252Z,7.25
2019-01-16T06:53:07.217Z,7.31
2019-01-16T06:54:07.241Z,7.28
2019-01-16T06:55:07.194Z,7.28
2019-01-16T06:56:07.259Z,7.14
2019-01-16T06:57:07.190Z,7.26
2019-01-16T06:58:07.290Z,7.21
2019-01-16T06:59:07.144Z,7.31
2019-01-16T07:00:07.180Z,7.22
2019-01-16T07:01:07.135Z,7.21
2019-01-16T07:02:07.220Z,7.11
2019-01-16T07:03:07.115Z,7.22
2019-01-16T07:04:07.108Z,7.23
2019-01-16T07:05:07.076Z,7.23
2019-01-16T07:06:07.123Z,7.13
2019-01-16T07:07:07.080Z,7.21
2019-01-16T07:08:07.136Z,7.22
2019-01-16T07:09:07.035Z,7.14
2019-01-16T07:10:07.048Z,7.28
2019-01-16T07:11:07.020Z,7.22
2019-01-16T07:12:07.098Z,7.29
2019-01-16T07:13:06.999Z,7.18
2019-01-16T07:14:07.076Z,7.28
2019-01-16T07:15:06.968Z,7.22
2019-01-16T07:16:06.987Z,7.21
2019-01-16T07:17:06.973Z,7.14
2019-01-16T07:18:07.001Z,7.10
2019-01-16T07:19:06.926Z,7.15
2019-01-16T07:20:09.891Z,7.14
2019-01-16T07:21:06.907Z,7.23
2019-01-16T07:22:06.961Z,7.19
2019-01-16T07:23:07.863Z,7.11
2019-01-16T07:24:13.912Z,7.22
2019-01-16T07:25:06.863Z,7.22
2019-01-16T07:26:06.955Z,7.15
2019-01-16T07:27:06.898Z,7.11
2019-01-16T07:28:06.867Z,7.11
2019-01-16T07:29:06.820Z,7.18
2019-01-16T07:30:06.878Z,7.21
2019-01-16T07:31:06.799Z,7.11
2019-01-16T07:32:06.925Z,7.13
2019-01-16T07:33:06.779Z,7.19
2019-01-16T07:34:06.803Z,7.13
2019-01-16T07:35:06.753Z,7.22
2019-01-16T07:36:06.809Z,7.11
2019-01-16T07:37:06.755Z,7.15
2019-01-16T07:38:06.823Z,7.13
2019-01-16T07:39:06.708Z,7.19
2019-01-16T07:40:06.736Z,7.15
2019-01-16T07:41:06.688Z,7.15
2019-01-16T07:42:06.791Z,7.11
2019-01-16T07:43:06.665Z,7.19
2019-01-16T07:44:06.762Z,7.19
2019-01-16T07:45:06.650Z,7.15
2019-01-16T07:46:06.676Z,7.13
2019-01-16T07:47:07.055Z,7.13
2019-01-16T07:48:06.687Z,7.15
2019-01-16T07:49:06.604Z,7.18
2019-01-16T07:50:06.699Z,7.05
2019-01-16T07:51:06.581Z,7.10
2019-01-16T07:52:06.615Z,7.04
2019-01-16T07:53:06.575Z,7.07
2019-01-16T07:54:06.685Z,7.05
2019-01-16T07:55:06.558Z,6.95
2019-01-16T07:56:06.541Z,6.96
2019-01-16T07:57:06.546Z,6.92
2019-01-16T07:58:06.594Z,6.93
2019-01-16T07:59:06.495Z,7.01
2019-01-16T08:00:06.582Z,7.00
2019-01-16T08:01:06.470Z,7.05
2019-01-16T08:02:06.479Z,7.05
2019-01-16T08:03:06.482Z,6.97
2019-01-16T08:04:06.502Z,7.04
2019-01-16T08:05:06.432Z,7.05
2019-01-16T08:06:06.515Z,6.93
2019-01-16T08:07:06.406Z,7.01
2019-01-16T08:08:09.936Z,7.01
2019-01-16T08:09:06.381Z,6.95
2019-01-16T08:10:13.801Z,7.05
2019-01-16T08:11:06.415Z,7.04
2019-01-16T08:12:06.444Z,7.01
2019-01-16T08:13:06.352Z,6.93
2019-01-16T08:14:06.373Z,7.00
2019-01-16T08:15:06.318Z,6.97
2019-01-16T08:16:06.374Z,7.04
2019-01-16T08:17:06.299Z,7.00
2019-01-16T08:18:06.416Z,6.90
2019-01-16T08:19:06.330Z,6.95
2019-01-16T08:20:06.300Z,6.97
2019-01-16T08:21:06.266Z,6.96
2019-01-16T08:22:06.322Z,6.95
2019-01-16T08:23:06.258Z,7.05
2019-01-16T08:24:06.322Z,6.90
2019-01-16T08:25:06.209Z,7.04
2019-01-16T08:26:06.235Z,6.97
2019-01-16T08:27:06.212Z,7.00
2019-01-16T08:28:06.295Z,7.03
2019-01-16T08:29:06.172Z,7.01
2019-01-16T08:30:06.277Z,6.97
2019-01-16T08:31:06.168Z,6.96
2019-01-16T08:32:06.175Z,7.03
2019-01-16T08:33:06.139Z,6.97
2019-01-16T08:34:06.189Z,6.95
2019-01-16T08:35:07.361Z,7.01
2019-01-16T08:36:06.316Z,6.93
2019-01-16T08:37:06.082Z,7.00
2019-01-16T08:38:07.209Z,6.97
2019-01-16T08:39:06.054Z,6.93
2019-01-16T08:40:06.136Z,7.00
2019-01-16T08:41:07.336Z,6.90
2019-01-16T08:42:06.052Z,6.96
2019-01-16T08:43:06.025Z,7.00
2019-01-16T08:44:13.441Z,6.95
2019-01-16T08:45:06.986Z,6.93
2019-01-16T08:46:06.078Z,6.95
2019-01-16T08:47:05.966Z,6.90
2019-01-16T08:48:06.114Z,6.92
2019-01-16T08:49:05.980Z,6.97
2019-01-16T08:50:05.998Z,7.04
2019-01-16T08:51:05.922Z,7.03
2019-01-16T08:52:06.098Z,6.90
2019-01-16T08:53:05.915Z,6.97
2019-01-16T08:54:05.949Z,6.90
2019-01-16T08:55:05.880Z,6.95
2019-01-16T08:56:05.952Z,6.97
2019-01-16T08:57:05.882Z,6.87
2019-01-16T08:58:05.939Z,7.00
2019-01-16T08:59:05.850Z,7.00
2019-01-16T09:00:05.863Z,7.05
2019-01-16T09:01:05.869Z,6.89
2019-01-16T09:02:05.863Z,6.89
2019-01-16T09:03:05.792Z,7.00
2019-01-16T09:04:05.907Z,6.93
2019-01-16T09:05:05.769Z,6.95
2019-01-16T09:06:05.787Z,6.86
2019-01-16T09:07:05.755Z,6.90
2019-01-16T09:08:05.804Z,6.80
2019-01-16T09:09:05.738Z,6.90
2019-01-16T09:10:05.815Z,6.90
2019-01-16T09:11:05.705Z,6.89
2019-01-16T09:12:05.732Z,6.89
2019-01-16T09:13:05.716Z,6.96
2019-01-16T09:14:05.809Z,6.80
2019-01-16T09:15:05.668Z,6.89
2019-01-16T09:16:05.754Z,6.92
2019-01-16T09:17:05.637Z,6.86
2019-01-16T09:18:05.665Z,6.86
2019-01-16T09:19:05.636Z,6.90
2019-01-16T09:20:05.682Z,6.83
2019-01-16T09:21:05.594Z,6.87
2019-01-16T09:22:05.700Z,6.87
2019-01-16T09:23:05.574Z,6.85
2019-01-16T09:24:05.635Z,6.85
2019-01-16T09:25:05.551Z,6.78
2019-01-16T09:26:05.620Z,6.83
2019-01-16T09:27:05.529Z,6.78
2019-01-16T09:28:05.531Z,6.85
2019-01-16T09:29:05.528Z,6.78
2019-01-16T09:30:05.549Z,6.77
2019-01-16T09:31:05.491Z,6.92
2019-01-16T09:32:05.567Z,6.83
2019-01-16T09:33:05.506Z,6.87
2019-01-16T09:34:05.495Z,6.80
2019-01-16T09:35:05.442Z,6.83
2019-01-16T09:36:05.485Z,6.80
2019-01-16T09:37:05.429Z,6.87
2019-01-16T09:38:05.500Z,6.92
2019-01-16T09:39:05.429Z,6.87
2019-01-16T09:40:12.474Z,6.90
2019-01-16T09:41:05.378Z,6.90
2019-01-16T09:42:05.426Z,6.92
2019-01-16T09:43:06.285Z,6.96
2019-01-16T09:44:07.384Z,6.90
2019-01-16T09:45:05.351Z,7.03
2019-01-16T09:46:05.348Z,7.04
2019-01-16T09:47:05.315Z,6.89
2019-01-16T09:48:05.363Z,6.87
2019-01-16T09:49:05.301Z,6.92
2019-01-16T09:50:05.414Z,6.90
2019-01-16T09:51:05.274Z,6.92
2019-01-16T09:52:05.290Z,6.86
2019-01-16T09:53:05.250Z,6.90
2019-01-16T09:54:05.300Z,6.92
2019-01-16T09:55:05.254Z,6.86
2019-01-16T09:56:05.313Z,6.90
2019-01-16T09:57:05.206Z,6.89
2019-01-16T09:58:05.223Z,6.93
2019-01-16T09:59:05.186Z,6.96
2019-01-16T10:00:05.270Z,6.92
2019-01-16T10:01:05.184Z,6.95
2019-01-16T10:02:05.249Z,6.89
2019-01-16T10:03:05.137Z,6.92
2019-01-16T10:04:05.164Z,6.87
2019-01-16T10:05:05.135Z,6.95
2019-01-16T10:06:05.180Z,6.90
2019-01-16T10:07:05.091Z,6.93
2019-01-16T10:08:05.189Z,6.97
2019-01-16T10:09:05.072Z,6.96
2019-01-16T10:10:05.131Z,6.92
2019-01-16T10:11:05.061Z,6.90
2019-01-16T10:12:05.116Z,6.92
2019-01-16T10:13:05.028Z,6.96
2019-01-16T10:14:05.024Z,6.90
2019-01-16T10:15:05.021Z,6.90
2019-01-16T10:16:05.040Z,6.90
2019-01-16T10:17:04.983Z,6.85
2019-01-16T10:18:05.057Z,6.93
2019-01-16T10:19:04.957Z,6.86
2019-01-16T10:20:05.002Z,6.87
2019-01-16T10:21:04.939Z,6.77
2019-01-16T10:22:04.979Z,6.85
2019-01-16T10:23:04.921Z,6.78
2019-01-16T10:24:06.019Z,6.85
2019-01-16T10:25:04.930Z,6.71
2019-01-16T10:26:12.925Z,6.77
2019-01-16T10:27:04.878Z,6.75
2019-01-16T10:28:12.397Z,6.72
2019-01-16T10:29:04.858Z,6.86
2019-01-16T10:30:06.902Z,6.71
2019-01-16T10:31:04.842Z,6.68
2019-01-16T10:32:04.841Z,6.71
2019-01-16T10:33:04.815Z,6.65
2019-01-16T10:34:04.860Z,6.62
2019-01-16T10:35:04.780Z,6.75
2019-01-16T10:36:04.908Z,6.70
2019-01-16T10:37:04.765Z,6.59
2019-01-16T10:38:04.780Z,6.67
2019-01-16T10:39:04.739Z,6.64
2019-01-16T10:40:04.796Z,6.57
2019-01-16T10:41:04.774Z,6.64
2019-01-16T10:42:04.811Z,6.62
2019-01-16T10:43:04.701Z,6.68
2019-01-16T10:44:04.720Z,6.53
2019-01-16T10:45:04.681Z,6.62
2019-01-16T10:46:04.772Z,6.64
2019-01-16T10:47:04.680Z,6.59
2019-01-16T10:48:04.747Z,6.64
2019-01-16T10:49:04.630Z,6.62
2019-01-16T10:50:04.657Z,6.67
2019-01-16T10:51:05.278Z,6.62
2019-01-16T10:52:04.672Z,6.65
2019-01-16T10:53:04.605Z,6.67
2019-01-16T10:54:04.691Z,6.68
2019-01-16T10:55:04.574Z,6.72
2019-01-16T10:56:04.626Z,6.68
2019-01-16T10:57:04.556Z,6.67
2019-01-16T10:58:04.611Z,6.74
2019-01-16T10:59:04.530Z,6.59
2019-01-16T11:00:04.643Z,6.65
2019-01-16T11:01:04.516Z,6.70
2019-01-16T11:02:04.552Z,6.65
2019-01-16T11:03:04.485Z,6.62
2019-01-16T11:04:04.572Z,6.65
2019-01-16T11:05:04.457Z,6.60
2019-01-16T11:06:04.488Z,6.54
2019-01-16T11:07:04.431Z,6.52
2019-01-16T11:08:04.504Z,6.52
2019-01-16T11:09:04.411Z,6.50
2019-01-16T11:10:04.502Z,6.54
2019-01-16T11:11:04.423Z,6.57
2019-01-16T11:12:04.420Z,6.52
2019-01-16T11:13:04.367Z,6.53
2019-01-16T11:14:05.466Z,6.50
2019-01-16T11:15:04.351Z,6.52
2019-01-16T11:16:05.362Z,6.46
2019-01-16T11:17:04.361Z,6.53
2019-01-16T11:18:04.354Z,6.53
2019-01-16T11:19:04.299Z,6.49
2019-01-16T11:20:04.356Z,6.46
2019-01-16T11:21:10.812Z,6.41
2019-01-16T11:22:05.354Z,6.44
2019-01-16T11:23:04.252Z,6.43
2019-01-16T11:24:04.293Z,6.49
2019-01-16T11:25:04.232Z,6.50
2019-01-16T11:26:04.290Z,6.44
2019-01-16T11:27:04.625Z,6.53
2019-01-16T11:28:04.333Z,6.52
2019-01-16T11:29:04.191Z,6.52
2019-01-16T11:30:04.226Z,6.52
2019-01-16T11:31:04.172Z,6.64
2019-01-16T11:32:04.366Z,6.60
2019-01-16T11:33:04.147Z,6.67
2019-01-16T11:34:04.262Z,6.64
2019-01-16T11:35:04.523Z,6.65
2019-01-16T11:36:04.153Z,6.67
2019-01-16T11:37:04.156Z,6.65
2019-01-16T11:38:04.180Z,6.54
2019-01-16T11:39:04.087Z,6.65
2019-01-16T11:40:04.809Z,6.70
2019-01-16T11:41:04.059Z,6.74
2019-01-16T11:42:04.118Z,6.85
2019-01-16T11:43:04.038Z,6.90
2019-01-16T11:44:04.107Z,6.90
2019-01-16T11:45:04.012Z,6.86
2019-01-16T11:46:04.029Z,7.00
2019-01-16T11:47:04.013Z,6.89
2019-01-16T11:48:04.038Z,7.03
2019-01-16T11:49:03.973Z,6.96
2019-01-16T11:50:04.057Z,7.03
2019-01-16T11:51:03.947Z,7.07
2019-01-16T11:52:03.988Z,7.11
2019-01-16T11:53:03.926Z,7.18
2019-01-16T11:54:03.990Z,7.14
2019-01-16T11:55:03.903Z,7.31
2019-01-16T11:56:03.999Z,7.25
2019-01-16T11:57:04.308Z,7.08
2019-01-16T11:58:03.912Z,7.25
2019-01-16T11:59:03.868Z,7.19
2019-01-16T12:00:03.924Z,7.32
2019-01-16T12:01:03.859Z,7.28
2019-01-16T12:02:03.956Z,7.23
2019-01-16T12:03:03.823Z,7.08
2019-01-16T12:04:04.242Z,7.14
2019-01-16T12:05:03.799Z,7.11
2019-01-16T12:06:03.852Z,7.11
2019-01-16T12:07:03.773Z,7.07
2019-01-16T12:08:03.887Z,7.04
2019-01-16T12:09:03.752Z,7.08
2019-01-16T12:10:03.782Z,7.04
2019-01-16T12:11:03.729Z,7.07
2019-01-16T12:12:03.795Z,7.11
2019-01-16T12:13:04.126Z,6.97
2019-01-16T12:14:03.823Z,7.03
2019-01-16T12:15:03.759Z,6.85
2019-01-16T12:16:03.710Z,6.87
2019-01-16T12:17:03.662Z,6.92
2019-01-16T12:18:03.751Z,6.92
2019-01-16T12:19:03.643Z,6.78
2019-01-16T12:20:03.746Z,6.71
2019-01-16T12:21:03.630Z,6.64
2019-01-16T12:22:03.657Z,6.74
2019-01-16T12:23:03.626Z,6.68
2019-01-16T12:24:03.669Z,6.67
2019-01-16T12:25:03.578Z,6.70
2019-01-16T12:26:08.025Z,6.54
2019-01-16T12:27:03.566Z,6.52
2019-01-16T12:28:03.685Z,6.52
2019-01-16T12:29:03.530Z,6.49
2019-01-16T12:30:03.621Z,6.34
2019-01-16T12:31:03.523Z,6.29
2019-01-16T12:32:03.548Z,6.38
2019-01-16T12:33:03.509Z,6.34
2019-01-16T12:34:03.546Z,6.35
2019-01-16T12:35:03.471Z,6.34
2019-01-16T12:36:03.552Z,6.41
2019-01-16T12:37:03.448Z,6.31
2019-01-16T12:38:03.484Z,6.35
2019-01-16T12:39:03.435Z,6.28
2019-01-16T12:40:04.503Z,6.32
2019-01-16T12:41:03.397Z,6.22
2019-01-16T12:42:05.432Z,6.19
2019-01-16T12:43:03.397Z,6.12
2019-01-16T12:44:03.401Z,6.17
2019-01-16T12:45:03.368Z,6.13
2019-01-16T12:46:09.964Z,6.12
2019-01-16T12:47:03.339Z,6.19
2019-01-16T12:48:04.425Z,6.22
2019-01-16T12:49:03.314Z,6.22
2019-01-16T12:50:03.343Z,6.17
2019-01-16T12:51:03.307Z,6.20
2019-01-16T12:52:03.358Z,6.25
2019-01-16T12:53:03.283Z,6.28
2019-01-16T12:54:03.371Z,6.26
2019-01-16T12:55:03.255Z,6.25
2019-01-16T12:56:03.668Z,6.20
2019-01-16T12:57:03.224Z,6.22
2019-01-16T12:58:03.310Z,6.22
2019-01-16T12:59:03.198Z,6.35
2019-01-16T13:00:03.300Z,6.29
2019-01-16T13:01:03.182Z,6.36
2019-01-16T13:02:03.212Z,6.34
2019-01-16T13:03:03.199Z,6.43
2019-01-16T13:04:03.241Z,6.46
2019-01-16T13:05:03.137Z,6.43
2019-01-16T13:06:03.656Z,6.38
2019-01-16T13:07:03.532Z,6.43
2019-01-16T13:08:03.150Z,6.36
2019-01-16T13:09:03.108Z,6.50
2019-01-16T13:10:03.173Z,6.38
2019-01-16T13:11:03.079Z,6.36
2019-01-16T13:12:03.079Z,6.44
2019-01-16T13:13:03.054Z,6.46
2019-01-16T13:14:03.213Z,6.44
2019-01-16T13:15:03.024Z,6.54
2019-01-16T13:16:03.104Z,6.53
2019-01-16T13:17:03.003Z,6.53
2019-01-16T13:18:03.020Z,6.46